sensor_id;sensor_type;location;lat;lon;timestamp;noise_LAeq;noise_LA_min;noise_LA_max;noise_LA01;noise_LA95
60031;Laerm;45901;47.600;9.890;2023-11-19T00:00:14;41.08;38.95;45.83;;
60031;Laerm;45901;47.600;9.890;2023-11-19T00:02:42;40.95;38.52;42.79;;
60031;Laerm;45901;47.600;9.890;2023-11-19T00:05:10;40.76;38.21;45.01;;
60031;Laerm;45901;47.600;9.890;2023-11-19T00:07:37;40.74;38.37;42.59;;
60031;Laerm;45901;47.600;9.890;2023-11-19T00:10:08;40.83;38.21;42.53;;
60031;Laerm;45901;47.600;9.890;2023-11-19T00:12:36;40.81;38.05;42.65;;
60031;Laerm;45901;47.600;9.890;2023-11-19T00:15:05;40.79;38.21;44.27;;
60031;Laerm;45901;47.600;9.890;2023-11-19T00:17:34;40.70;38.32;42.82;;
60031;Laerm;45901;47.600;9.890;2023-11-19T00:20:03;40.78;38.05;43.68;;
60031;Laerm;45901;47.600;9.890;2023-11-19T00:22:31;40.82;38.52;42.98;;
60031;Laerm;45901;47.600;9.890;2023-11-19T00:24:58;40.75;37.70;42.53;;
60031;Laerm;45901;47.600;9.890;2023-11-19T00:27:26;40.76;37.52;43.58;;
60031;Laerm;45901;47.600;9.890;2023-11-19T00:29:53;40.74;38.18;42.65;;
60031;Laerm;45901;47.600;9.890;2023-11-19T00:32:20;40.86;38.21;44.35;;
60031;Laerm;45901;47.600;9.890;2023-11-19T00:34:47;40.94;38.52;42.59;;
60031;Laerm;45901;47.600;9.890;2023-11-19T00:37:16;40.98;38.21;42.82;;
60031;Laerm;45901;47.600;9.890;2023-11-19T00:39:43;41.07;38.52;43.68;;
60031;Laerm;45901;47.600;9.890;2023-11-19T00:42:11;41.05;38.21;43.24;;
60031;Laerm;45901;47.600;9.890;2023-11-19T00:44:39;40.86;38.21;42.59;;
60031;Laerm;45901;47.600;9.890;2023-11-19T00:47:06;40.75;38.21;43.68;;
60031;Laerm;45901;47.600;9.890;2023-11-19T00:49:33;40.73;38.21;42.47;;
60031;Laerm;45901;47.600;9.890;2023-11-19T00:52:01;40.63;38.05;42.47;;
60031;Laerm;45901;47.600;9.890;2023-11-19T00:54:30;40.64;37.70;42.59;;
60031;Laerm;45901;47.600;9.890;2023-11-19T00:56:57;40.60;37.52;42.76;;
60031;Laerm;45901;47.600;9.890;2023-11-19T00:59:24;40.64;38.05;42.53;;
60031;Laerm;45901;47.600;9.890;2023-11-19T01:01:50;41.01;38.52;45.04;;
60031;Laerm;45901;47.600;9.890;2023-11-19T01:04:17;40.88;38.52;44.76;;
60031;Laerm;45901;47.600;9.890;2023-11-19T01:06:44;40.80;38.52;45.83;;
60031;Laerm;45901;47.600;9.890;2023-11-19T01:09:11;40.83;38.37;42.69;;
60031;Laerm;45901;47.600;9.890;2023-11-19T01:11:40;40.84;38.21;42.41;;
60031;Laerm;45901;47.600;9.890;2023-11-19T01:14:07;40.78;37.87;42.47;;
60031;Laerm;45901;47.600;9.890;2023-11-19T01:16:34;40.80;38.37;44.51;;
60031;Laerm;45901;47.600;9.890;2023-11-19T01:19:01;40.83;38.21;42.41;;
60031;Laerm;45901;47.600;9.890;2023-11-19T01:21:30;40.67;37.70;42.98;;
60031;Laerm;45901;47.600;9.890;2023-11-19T01:23:57;40.74;38.05;42.65;;
60031;Laerm;45901;47.600;9.890;2023-11-19T01:26:25;40.79;37.88;42.82;;
60031;Laerm;45901;47.600;9.890;2023-11-19T01:28:53;42.44;37.52;72.05;;
60031;Laerm;45901;47.600;9.890;2023-11-19T01:31:20;51.78;39.08;86.51;;
60031;Laerm;45901;47.600;9.890;2023-11-19T01:33:48;46.67;38.37;77.89;;
60031;Laerm;45901;47.600;9.890;2023-11-19T01:36:15;43.45;39.34;71.28;;
60031;Laerm;45901;47.600;9.890;2023-11-19T01:38:42;54.42;38.52;90.35;;
60031;Laerm;45901;47.600;9.890;2023-11-19T01:41:10;42.92;39.08;61.86;;
60031;Laerm;45901;47.600;9.890;2023-11-19T01:43:38;43.19;40.23;52.91;;
60031;Laerm;45901;47.600;9.890;2023-11-19T01:46:08;44.46;40.62;72.52;;
60031;Laerm;45901;47.600;9.890;2023-11-19T01:48:41;44.02;40.13;73.86;;
60031;Laerm;45901;47.600;9.890;2023-11-19T01:51:09;42.94;40.03;60.10;;
60031;Laerm;45901;47.600;9.890;2023-11-19T01:53:37;44.20;41.30;51.40;;
60031;Laerm;45901;47.600;9.890;2023-11-19T01:56:07;45.55;41.53;75.86;;
60031;Laerm;45901;47.600;9.890;2023-11-19T01:58:35;48.36;40.53;74.32;;
60031;Laerm;45901;47.600;9.890;2023-11-19T02:01:04;50.45;42.88;58.32;;
60031;Laerm;45901;47.600;9.890;2023-11-19T02:03:32;49.23;42.47;61.12;;
60031;Laerm;45901;47.600;9.890;2023-11-19T02:06:00;50.71;41.75;61.39;;
60031;Laerm;45901;47.600;9.890;2023-11-19T02:08:27;55.17;44.31;59.21;;
60031;Laerm;45901;47.600;9.890;2023-11-19T02:10:54;51.36;43.09;59.69;;
60031;Laerm;45901;47.600;9.890;2023-11-19T02:13:22;49.27;39.92;60.89;;
60031;Laerm;45901;47.600;9.890;2023-11-19T02:15:50;45.38;40.80;59.89;;
60031;Laerm;45901;47.600;9.890;2023-11-19T02:18:19;42.89;38.67;51.85;;
60031;Laerm;45901;47.600;9.890;2023-11-19T02:20:49;40.98;37.52;49.12;;
60031;Laerm;45901;47.600;9.890;2023-11-19T02:23:16;40.66;37.88;42.98;;
60031;Laerm;45901;47.600;9.890;2023-11-19T02:26:03;40.46;37.12;42.47;;
60031;Laerm;45901;47.600;9.890;2023-11-19T02:28:35;40.38;36.91;44.23;;
60031;Laerm;45901;47.600;9.890;2023-11-19T02:31:03;40.77;37.52;45.94;;
60031;Laerm;45901;47.600;9.890;2023-11-19T02:33:30;41.19;38.37;45.99;;
60031;Laerm;45901;47.600;9.890;2023-11-19T02:35:58;40.71;38.37;42.65;;
60031;Laerm;45901;47.600;9.890;2023-11-19T02:38:25;40.60;37.12;42.59;;
60031;Laerm;45901;47.600;9.890;2023-11-19T02:40:52;41.72;38.67;47.90;;
60031;Laerm;45901;47.600;9.890;2023-11-19T02:43:19;41.51;39.08;47.06;;
60031;Laerm;45901;47.600;9.890;2023-11-19T02:45:48;41.31;38.52;46.33;;
60031;Laerm;45901;47.600;9.890;2023-11-19T02:48:15;42.00;39.58;46.93;;
60031;Laerm;45901;47.600;9.890;2023-11-19T02:50:42;41.88;39.21;46.55;;
60031;Laerm;45901;47.600;9.890;2023-11-19T02:53:09;41.25;38.67;46.43;;
60031;Laerm;45901;47.600;9.890;2023-11-19T02:55:36;41.31;38.37;43.24;;
60031;Laerm;45901;47.600;9.890;2023-11-19T02:58:06;41.59;38.95;45.83;;
60031;Laerm;45901;47.600;9.890;2023-11-19T03:00:47;41.75;39.08;45.07;;
60031;Laerm;45901;47.600;9.890;2023-11-19T03:03:20;41.47;36.91;43.24;;
60031;Laerm;45901;47.600;9.890;2023-11-19T03:05:48;41.55;38.21;43.68;;
60031;Laerm;45901;47.600;9.890;2023-11-19T03:08:16;41.70;38.52;43.90;;
60031;Laerm;45901;47.600;9.890;2023-11-19T03:10:43;41.65;38.52;43.49;;
60031;Laerm;45901;47.600;9.890;2023-11-19T03:13:12;41.78;38.81;44.35;;
60031;Laerm;45901;47.600;9.890;2023-11-19T03:15:40;41.92;39.46;46.18;;
60031;Laerm;45901;47.600;9.890;2023-11-19T03:18:09;41.95;38.95;44.94;;
60031;Laerm;45901;47.600;9.890;2023-11-19T03:20:36;42.05;39.81;44.72;;
60031;Laerm;45901;47.600;9.890;2023-11-19T03:23:03;41.98;39.58;44.83;;
60031;Laerm;45901;47.600;9.890;2023-11-19T03:25:31;42.65;39.34;49.88;;
60031;Laerm;45901;47.600;9.890;2023-11-19T03:28:00;42.58;39.70;47.96;;
60031;Laerm;45901;47.600;9.890;2023-11-19T03:30:28;42.10;38.95;44.03;;
60031;Laerm;45901;47.600;9.890;2023-11-19T03:32:55;41.96;39.34;44.23;;
60031;Laerm;45901;47.600;9.890;2023-11-19T03:35:23;42.02;39.34;43.90;;
60031;Laerm;45901;47.600;9.890;2023-11-19T03:37:50;42.77;40.13;46.97;;
60031;Laerm;45901;47.600;9.890;2023-11-19T03:40:18;42.96;40.43;45.39;;
60031;Laerm;45901;47.600;9.890;2023-11-19T03:42:45;42.69;39.58;45.27;;
60031;Laerm;45901;47.600;9.890;2023-11-19T03:45:13;42.58;40.13;45.60;;
60031;Laerm;45901;47.600;9.890;2023-11-19T03:47:41;42.46;39.70;44.87;;
60031;Laerm;45901;47.600;9.890;2023-11-19T03:50:09;42.40;40.03;45.63;;
60031;Laerm;45901;47.600;9.890;2023-11-19T03:52:37;42.20;39.70;44.51;;
60031;Laerm;45901;47.600;9.890;2023-11-19T03:55:05;41.90;38.52;43.77;;
60031;Laerm;45901;47.600;9.890;2023-11-19T03:57:34;41.95;39.46;43.94;;
60031;Laerm;45901;47.600;9.890;2023-11-19T04:00:02;41.96;39.46;43.94;;
60031;Laerm;45901;47.600;9.890;2023-11-19T04:02:36;41.98;39.58;44.39;;
60031;Laerm;45901;47.600;9.890;2023-11-19T04:05:08;41.97;39.46;44.97;;
60031;Laerm;45901;47.600;9.890;2023-11-19T04:07:38;42.10;39.46;45.36;;
60031;Laerm;45901;47.600;9.890;2023-11-19T04:10:06;42.51;40.33;46.55;;
60031;Laerm;45901;47.600;9.890;2023-11-19T04:12:33;42.71;40.53;48.57;;
60031;Laerm;45901;47.600;9.890;2023-11-19T04:15:00;42.69;40.43;47.96;;
60031;Laerm;45901;47.600;9.890;2023-11-19T04:17:27;42.38;40.23;44.97;;
60031;Laerm;45901;47.600;9.890;2023-11-19T04:19:54;42.52;38.95;46.28;;
60031;Laerm;45901;47.600;9.890;2023-11-19T04:22:21;42.25;39.21;45.11;;
60031;Laerm;45901;47.600;9.890;2023-11-19T04:24:49;42.38;39.70;45.23;;
60031;Laerm;45901;47.600;9.890;2023-11-19T04:27:16;41.90;39.21;44.12;;
60031;Laerm;45901;47.600;9.890;2023-11-19T04:29:43;42.02;39.21;45.11;;
60031;Laerm;45901;47.600;9.890;2023-11-19T04:32:11;41.80;39.46;47.65;;
60031;Laerm;45901;47.600;9.890;2023-11-19T04:34:38;41.81;38.95;44.43;;
60031;Laerm;45901;47.600;9.890;2023-11-19T04:37:05;42.01;39.34;44.31;;
60031;Laerm;45901;47.600;9.890;2023-11-19T04:39:32;42.32;39.58;63.69;;
60031;Laerm;45901;47.600;9.890;2023-11-19T04:42:00;42.03;39.70;43.94;;
60031;Laerm;45901;47.600;9.890;2023-11-19T04:44:28;42.02;39.08;51.14;;
60031;Laerm;45901;47.600;9.890;2023-11-19T04:46:55;41.98;39.08;45.48;;
60031;Laerm;45901;47.600;9.890;2023-11-19T04:49:23;42.12;39.81;44.07;;
60031;Laerm;45901;47.600;9.890;2023-11-19T04:51:52;42.00;39.21;43.99;;
60031;Laerm;45901;47.600;9.890;2023-11-19T04:54:19;42.09;39.81;44.19;;
60031;Laerm;45901;47.600;9.890;2023-11-19T04:56:46;41.97;39.46;46.15;;
60031;Laerm;45901;47.600;9.890;2023-11-19T04:59:14;42.12;39.81;45.69;;
60031;Laerm;45901;47.600;9.890;2023-11-19T05:01:46;41.94;38.81;44.87;;
60031;Laerm;45901;47.600;9.890;2023-11-19T05:04:13;42.01;38.95;44.11;;
60031;Laerm;45901;47.600;9.890;2023-11-19T05:06:40;41.74;38.95;43.44;;
60031;Laerm;45901;47.600;9.890;2023-11-19T05:09:07;42.06;39.46;45.73;;
60031;Laerm;45901;47.600;9.890;2023-11-19T05:11:34;42.03;39.92;45.86;;
60031;Laerm;45901;47.600;9.890;2023-11-19T05:14:02;41.81;39.58;45.60;;
60031;Laerm;45901;47.600;9.890;2023-11-19T05:16:32;41.70;39.46;47.10;;
60031;Laerm;45901;47.600;9.890;2023-11-19T05:18:59;41.59;39.21;47.83;;
60031;Laerm;45901;47.600;9.890;2023-11-19T05:21:26;41.42;38.52;44.15;;
60031;Laerm;45901;47.600;9.890;2023-11-19T05:23:53;41.19;38.05;43.90;;
60031;Laerm;45901;47.600;9.890;2023-11-19T05:26:21;41.03;38.52;44.11;;
60031;Laerm;45901;47.600;9.890;2023-11-19T05:28:48;40.96;38.21;45.33;;
60031;Laerm;45901;47.600;9.890;2023-11-19T05:31:17;41.17;38.21;43.81;;
60031;Laerm;45901;47.600;9.890;2023-11-19T05:33:46;41.35;38.81;46.15;;
60031;Laerm;45901;47.600;9.890;2023-11-19T05:36:13;41.61;39.46;46.40;;
60031;Laerm;45901;47.600;9.890;2023-11-19T05:38:40;41.46;39.21;44.65;;
60031;Laerm;45901;47.600;9.890;2023-11-19T05:41:07;41.34;38.81;45.86;;
60031;Laerm;45901;47.600;9.890;2023-11-19T05:43:34;41.16;38.52;42.71;;
60031;Laerm;45901;47.600;9.890;2023-11-19T05:46:01;41.27;38.81;43.09;;
60031;Laerm;45901;47.600;9.890;2023-11-19T05:48:28;41.56;38.21;44.31;;
60031;Laerm;45901;47.600;9.890;2023-11-19T05:50:57;42.14;39.21;44.51;;
60031;Laerm;45901;47.600;9.890;2023-11-19T05:53:24;41.91;38.81;44.35;;
60031;Laerm;45901;47.600;9.890;2023-11-19T05:55:51;42.92;40.33;49.25;;
60031;Laerm;45901;47.600;9.890;2023-11-19T05:58:24;42.86;40.53;49.07;;
60031;Laerm;45901;47.600;9.890;2023-11-19T06:00:54;43.20;40.89;46.66;;
60031;Laerm;45901;47.600;9.890;2023-11-19T06:03:21;43.20;40.80;47.63;;
60031;Laerm;45901;47.600;9.890;2023-11-19T06:05:48;43.00;40.98;45.07;;
60031;Laerm;45901;47.600;9.890;2023-11-19T06:08:17;43.87;40.98;48.07;;
60031;Laerm;45901;47.600;9.890;2023-11-19T06:10:46;45.94;44.07;48.77;;
60031;Laerm;45901;47.600;9.890;2023-11-19T06:13:16;45.57;43.81;48.67;;
60031;Laerm;45901;47.600;9.890;2023-11-19T06:15:43;45.39;43.54;47.67;;
60031;Laerm;45901;47.600;9.890;2023-11-19T06:18:10;45.59;43.81;48.28;;
60031;Laerm;45901;47.600;9.890;2023-11-19T06:20:38;45.99;43.72;48.54;;
60031;Laerm;45901;47.600;9.890;2023-11-19T06:23:05;45.93;43.99;52.11;;
60031;Laerm;45901;47.600;9.890;2023-11-19T06:25:33;46.12;43.94;48.83;;
60031;Laerm;45901;47.600;9.890;2023-11-19T06:28:01;44.10;41.06;49.25;;
60031;Laerm;45901;47.600;9.890;2023-11-19T06:30:28;42.41;39.58;46.45;;
60031;Laerm;45901;47.600;9.890;2023-11-19T06:32:58;42.17;40.03;46.73;;
60031;Laerm;45901;47.600;9.890;2023-11-19T06:35:25;42.12;39.34;45.91;;
60031;Laerm;45901;47.600;9.890;2023-11-19T06:37:52;42.17;39.46;44.51;;
60031;Laerm;45901;47.600;9.890;2023-11-19T06:40:19;42.00;39.58;43.81;;
60031;Laerm;45901;47.600;9.890;2023-11-19T06:42:48;41.71;38.67;43.90;;
60031;Laerm;45901;47.600;9.890;2023-11-19T06:45:15;41.94;39.34;43.68;;
60031;Laerm;45901;47.600;9.890;2023-11-19T06:47:42;42.37;39.81;43.94;;
60031;Laerm;45901;47.600;9.890;2023-11-19T06:50:09;42.52;40.43;44.15;;
60031;Laerm;45901;47.600;9.890;2023-11-19T06:52:38;42.36;39.70;44.58;;
60031;Laerm;45901;47.600;9.890;2023-11-19T06:55:06;42.41;39.92;45.80;;
60031;Laerm;45901;47.600;9.890;2023-11-19T06:57:34;42.31;39.70;45.01;;
60031;Laerm;45901;47.600;9.890;2023-11-19T07:00:03;42.30;39.58;44.07;;
60031;Laerm;45901;47.600;9.890;2023-11-19T07:02:31;42.37;40.33;44.65;;
60031;Laerm;45901;47.600;9.890;2023-11-19T07:04:58;42.19;39.81;43.99;;
60031;Laerm;45901;47.600;9.890;2023-11-19T07:07:25;42.23;39.68;43.94;;
60031;Laerm;45901;47.600;9.890;2023-11-19T07:09:53;42.12;39.46;43.68;;
60031;Laerm;45901;47.600;9.890;2023-11-19T07:12:20;42.08;39.70;43.99;;
60031;Laerm;45901;47.600;9.890;2023-11-19T07:14:47;42.08;39.21;44.07;;
60031;Laerm;45901;47.600;9.890;2023-11-19T07:17:15;41.98;39.46;43.68;;
60031;Laerm;45901;47.600;9.890;2023-11-19T07:19:43;42.04;39.34;43.68;;
60031;Laerm;45901;47.600;9.890;2023-11-19T07:22:10;41.94;39.08;43.68;;
60031;Laerm;45901;47.600;9.890;2023-11-19T07:24:39;41.82;39.21;43.81;;
60031;Laerm;45901;47.600;9.890;2023-11-19T07:27:06;41.81;38.95;43.49;;
60031;Laerm;45901;47.600;9.890;2023-11-19T07:29:34;42.07;39.70;43.90;;
60031;Laerm;45901;47.600;9.890;2023-11-19T07:32:01;42.16;39.81;43.94;;
60031;Laerm;45901;47.600;9.890;2023-11-19T07:34:30;42.19;39.70;44.12;;
60031;Laerm;45901;47.600;9.890;2023-11-19T07:36:57;41.87;38.81;43.58;;
60031;Laerm;45901;47.600;9.890;2023-11-19T07:39:27;41.60;38.67;43.77;;
60031;Laerm;45901;47.600;9.890;2023-11-19T07:41:54;41.92;39.08;44.11;;
60031;Laerm;45901;47.600;9.890;2023-11-19T07:44:21;41.93;38.21;44.11;;
60031;Laerm;45901;47.600;9.890;2023-11-19T07:46:49;41.51;38.37;43.72;;
60031;Laerm;45901;47.600;9.890;2023-11-19T07:49:15;41.53;38.81;51.64;;
60031;Laerm;45901;47.600;9.890;2023-11-19T07:51:44;41.58;38.60;46.13;;
60031;Laerm;45901;47.600;9.890;2023-11-19T07:54:11;41.89;39.08;43.86;;
60031;Laerm;45901;47.600;9.890;2023-11-19T07:56:39;41.66;39.08;43.54;;
60031;Laerm;45901;47.600;9.890;2023-11-19T07:59:06;41.70;38.81;43.44;;
60031;Laerm;45901;47.600;9.890;2023-11-19T08:01:33;41.77;39.21;45.17;;
60031;Laerm;45901;47.600;9.890;2023-11-19T08:04:00;41.52;38.67;43.29;;
60031;Laerm;45901;47.600;9.890;2023-11-19T08:06:28;41.48;38.37;44.35;;
60031;Laerm;45901;47.600;9.890;2023-11-19T08:08:56;41.50;38.67;43.44;;
60031;Laerm;45901;47.600;9.890;2023-11-19T08:11:23;41.64;39.21;43.39;;
60031;Laerm;45901;47.600;9.890;2023-11-19T08:13:50;41.75;39.08;43.54;;
60031;Laerm;45901;47.600;9.890;2023-11-19T08:16:17;41.83;39.21;43.39;;
60031;Laerm;45901;47.600;9.890;2023-11-19T08:18:44;41.87;36.98;43.72;;
60031;Laerm;45901;47.600;9.890;2023-11-19T08:21:11;42.08;39.70;44.80;;
60031;Laerm;45901;47.600;9.890;2023-11-19T08:23:39;42.05;38.95;43.72;;
60031;Laerm;45901;47.600;9.890;2023-11-19T08:26:07;42.04;39.21;44.51;;
60031;Laerm;45901;47.600;9.890;2023-11-19T08:28:34;42.18;39.58;43.86;;
60031;Laerm;45901;47.600;9.890;2023-11-19T08:31:01;41.97;39.08;43.94;;
60031;Laerm;45901;47.600;9.890;2023-11-19T08:33:29;41.70;39.34;43.68;;
60031;Laerm;45901;47.600;9.890;2023-11-19T08:35:56;41.41;38.52;43.63;;
60031;Laerm;45901;47.600;9.890;2023-11-19T08:38:24;41.32;38.37;43.04;;
60031;Laerm;45901;47.600;9.890;2023-11-19T08:40:51;41.20;38.81;42.93;;
60031;Laerm;45901;47.600;9.890;2023-11-19T08:43:20;41.24;38.95;43.34;;
60031;Laerm;45901;47.600;9.890;2023-11-19T08:45:48;41.35;38.95;43.54;;
60031;Laerm;45901;47.600;9.890;2023-11-19T08:48:15;41.16;38.60;42.82;;
60031;Laerm;45901;47.600;9.890;2023-11-19T08:50:42;41.25;38.37;43.24;;
60031;Laerm;45901;47.600;9.890;2023-11-19T08:53:09;41.53;38.52;43.63;;
60031;Laerm;45901;47.600;9.890;2023-11-19T08:55:37;41.83;38.95;44.35;;
60031;Laerm;45901;47.600;9.890;2023-11-19T08:58:04;41.99;39.08;45.54;;
60031;Laerm;45901;47.600;9.890;2023-11-19T09:00:32;41.48;38.21;45.33;;
60031;Laerm;45901;47.600;9.890;2023-11-19T09:02:59;41.44;38.52;52.51;;
60031;Laerm;45901;47.600;9.890;2023-11-19T09:05:26;41.61;39.21;46.89;;
60031;Laerm;45901;47.600;9.890;2023-11-19T09:07:53;41.54;38.81;43.68;;
60031;Laerm;45901;47.600;9.890;2023-11-19T09:10:20;41.65;38.81;48.21;;
60031;Laerm;45901;47.600;9.890;2023-11-19T09:12:47;41.90;38.95;53.94;;
60031;Laerm;45901;47.600;9.890;2023-11-19T09:15:14;42.16;38.52;44.03;;
60031;Laerm;45901;47.600;9.890;2023-11-19T09:17:42;42.38;39.81;58.44;;
60031;Laerm;45901;47.600;9.890;2023-11-19T09:20:11;42.23;39.34;44.62;;
60031;Laerm;45901;47.600;9.890;2023-11-19T09:22:41;42.25;39.70;44.87;;
60031;Laerm;45901;47.600;9.890;2023-11-19T09:25:08;42.27;39.70;44.76;;
60031;Laerm;45901;47.600;9.890;2023-11-19T09:27:35;42.31;39.08;45.54;;
60031;Laerm;45901;47.600;9.890;2023-11-19T09:30:02;42.12;39.08;44.11;;
60031;Laerm;45901;47.600;9.890;2023-11-19T09:32:30;41.96;39.21;44.03;;
60031;Laerm;45901;47.600;9.890;2023-11-19T09:34:58;41.83;38.81;43.86;;
60031;Laerm;45901;47.600;9.890;2023-11-19T09:37:26;42.00;39.08;44.07;;
60031;Laerm;45901;47.600;9.890;2023-11-19T09:39:53;42.12;39.34;44.58;;
60031;Laerm;45901;47.600;9.890;2023-11-19T09:42:20;42.24;39.46;44.07;;
60031;Laerm;45901;47.600;9.890;2023-11-19T09:44:48;42.26;39.08;44.11;;
60031;Laerm;45901;47.600;9.890;2023-11-19T09:47:17;41.91;38.95;51.22;;
60031;Laerm;45901;47.600;9.890;2023-11-19T09:49:45;41.85;38.67;43.99;;
60031;Laerm;45901;47.600;9.890;2023-11-19T09:52:14;41.16;38.21;43.49;;
60031;Laerm;45901;47.600;9.890;2023-11-19T09:54:41;41.42;39.08;43.37;;
60031;Laerm;45901;47.600;9.890;2023-11-19T09:57:08;41.67;38.81;43.58;;
60031;Laerm;45901;47.600;9.890;2023-11-19T09:59:38;41.90;38.37;43.72;;
60031;Laerm;45901;47.600;9.890;2023-11-19T10:02:07;42.18;39.21;45.33;;
60031;Laerm;45901;47.600;9.890;2023-11-19T10:04:35;42.12;39.58;44.19;;
60031;Laerm;45901;47.600;9.890;2023-11-19T10:07:04;42.21;39.81;43.86;;
60031;Laerm;45901;47.600;9.890;2023-11-19T10:09:32;42.18;38.67;43.90;;
60031;Laerm;45901;47.600;9.890;2023-11-19T10:11:59;42.30;39.81;44.23;;
60031;Laerm;45901;47.600;9.890;2023-11-19T10:14:28;42.24;39.34;44.39;;
60031;Laerm;45901;47.600;9.890;2023-11-19T10:17:00;42.08;38.37;44.11;;
60031;Laerm;45901;47.600;9.890;2023-11-19T10:19:29;42.41;38.81;44.90;;
60031;Laerm;45901;47.600;9.890;2023-11-19T10:22:05;42.43;39.34;49.80;;
60031;Laerm;45901;47.600;9.890;2023-11-19T10:24:34;42.41;39.46;51.34;;
60031;Laerm;45901;47.600;9.890;2023-11-19T10:27:01;42.59;40.13;45.23;;
60031;Laerm;45901;47.600;9.890;2023-11-19T10:29:30;42.39;39.58;44.62;;
60031;Laerm;45901;47.600;9.890;2023-11-19T10:31:57;42.45;39.58;56.68;;
60031;Laerm;45901;47.600;9.890;2023-11-19T10:34:26;42.34;39.81;44.83;;
60031;Laerm;45901;47.600;9.890;2023-11-19T10:36:53;42.24;39.58;44.39;;
60031;Laerm;45901;47.600;9.890;2023-11-19T10:39:20;42.13;39.08;45.54;;
60031;Laerm;45901;47.600;9.890;2023-11-19T10:41:50;42.15;39.70;44.11;;
60031;Laerm;45901;47.600;9.890;2023-11-19T10:44:31;42.16;39.34;44.43;;
60031;Laerm;45901;47.600;9.890;2023-11-19T10:47:01;42.37;39.78;44.19;;
60031;Laerm;45901;47.600;9.890;2023-11-19T10:49:28;42.25;39.81;45.63;;
60031;Laerm;45901;47.600;9.890;2023-11-19T10:51:56;42.36;38.95;44.83;;
60031;Laerm;45901;47.600;9.890;2023-11-19T10:54:24;42.44;39.81;44.97;;
60031;Laerm;45901;47.600;9.890;2023-11-19T10:56:58;42.46;40.03;44.39;;
60031;Laerm;45901;47.600;9.890;2023-11-19T10:59:30;42.34;39.92;44.51;;
60031;Laerm;45901;47.600;9.890;2023-11-19T11:01:57;42.12;39.34;46.87;;
60031;Laerm;45901;47.600;9.890;2023-11-19T11:04:28;42.17;39.70;44.47;;
60031;Laerm;45901;47.600;9.890;2023-11-19T11:06:59;42.29;39.57;45.20;;
60031;Laerm;45901;47.600;9.890;2023-11-19T11:09:27;42.29;39.58;44.23;;
60031;Laerm;45901;47.600;9.890;2023-11-19T11:11:57;42.42;39.92;44.35;;
60031;Laerm;45901;47.600;9.890;2023-11-19T11:14:26;42.55;39.92;44.43;;
60031;Laerm;45901;47.600;9.890;2023-11-19T11:16:53;42.64;39.58;44.58;;
60031;Laerm;45901;47.600;9.890;2023-11-19T11:19:23;42.76;40.13;44.58;;
60031;Laerm;45901;47.600;9.890;2023-11-19T11:21:53;42.86;40.23;44.76;;
60031;Laerm;45901;47.600;9.890;2023-11-19T11:24:58;42.82;39.58;44.90;;
60031;Laerm;45901;47.600;9.890;2023-11-19T11:28:04;42.68;39.70;48.31;;
60031;Laerm;45901;47.600;9.890;2023-11-19T11:30:46;42.65;39.92;46.40;;
60031;Laerm;45901;47.600;9.890;2023-11-19T11:33:36;42.67;39.70;44.58;;
60031;Laerm;45901;47.600;9.890;2023-11-19T11:36:14;42.71;39.92;44.76;;
60031;Laerm;45901;47.600;9.890;2023-11-19T11:38:48;42.71;40.23;44.62;;
60031;Laerm;45901;47.600;9.890;2023-11-19T11:41:17;42.76;39.70;44.39;;
60031;Laerm;45901;47.600;9.890;2023-11-19T11:43:48;42.75;39.92;44.76;;
60031;Laerm;45901;47.600;9.890;2023-11-19T11:46:53;42.73;40.23;44.80;;
60031;Laerm;45901;47.600;9.890;2023-11-19T11:49:28;42.76;39.81;44.87;;
60031;Laerm;45901;47.600;9.890;2023-11-19T11:52:01;42.75;40.13;44.73;;
60031;Laerm;45901;47.600;9.890;2023-11-19T11:54:29;43.06;40.71;45.33;;
60031;Laerm;45901;47.600;9.890;2023-11-19T11:57:07;42.87;39.81;45.39;;
60031;Laerm;45901;47.600;9.890;2023-11-19T11:59:54;42.91;39.58;44.92;;
60031;Laerm;45901;47.600;9.890;2023-11-19T12:02:22;42.96;40.33;46.48;;
60031;Laerm;45901;47.600;9.890;2023-11-19T12:04:51;42.96;40.23;44.90;;
60031;Laerm;45901;47.600;9.890;2023-11-19T12:07:21;42.98;40.03;44.69;;
60031;Laerm;45901;47.600;9.890;2023-11-19T12:09:52;42.98;40.53;44.62;;
60031;Laerm;45901;47.600;9.890;2023-11-19T12:12:27;43.08;40.03;44.97;;
60031;Laerm;45901;47.600;9.890;2023-11-19T12:15:07;42.96;40.03;44.65;;
60031;Laerm;45901;47.600;9.890;2023-11-19T12:17:40;42.84;39.58;44.90;;
60031;Laerm;45901;47.600;9.890;2023-11-19T12:20:10;42.65;39.46;44.76;;
60031;Laerm;45901;47.600;9.890;2023-11-19T12:22:38;42.62;39.70;46.52;;
60031;Laerm;45901;47.600;9.890;2023-11-19T12:25:07;42.62;39.70;44.47;;
60031;Laerm;45901;47.600;9.890;2023-11-19T12:27:34;42.71;39.46;44.65;;
60031;Laerm;45901;47.600;9.890;2023-11-19T12:30:02;42.71;39.70;44.54;;
60031;Laerm;45901;47.600;9.890;2023-11-19T12:32:40;42.72;39.92;44.76;;
60031;Laerm;45901;47.600;9.890;2023-11-19T12:35:07;42.73;40.23;44.54;;
60031;Laerm;45901;47.600;9.890;2023-11-19T12:37:44;42.62;40.03;44.83;;
60031;Laerm;45901;47.600;9.890;2023-11-19T12:42:43;43.12;40.23;66.10;;
60031;Laerm;45901;47.600;9.890;2023-11-19T12:45:11;43.08;40.43;46.23;;
60031;Laerm;45901;47.600;9.890;2023-11-19T12:47:40;43.02;40.53;45.36;;
60031;Laerm;45901;47.600;9.890;2023-11-19T12:50:09;43.00;40.53;44.73;;
60031;Laerm;45901;47.600;9.890;2023-11-19T12:52:37;42.95;40.33;44.80;;
60031;Laerm;45901;47.600;9.890;2023-11-19T12:55:05;42.92;40.23;44.69;;
60031;Laerm;45901;47.600;9.890;2023-11-19T12:57:40;42.86;40.13;44.62;;
60031;Laerm;45901;47.600;9.890;2023-11-19T13:00:18;42.91;39.81;45.48;;
60031;Laerm;45901;47.600;9.890;2023-11-19T13:02:51;42.76;39.92;44.62;;
60031;Laerm;45901;47.600;9.890;2023-11-19T13:05:27;42.75;40.08;44.58;;
60031;Laerm;45901;47.600;9.890;2023-11-19T13:08:02;42.59;39.58;46.10;;
60031;Laerm;45901;47.600;9.890;2023-11-19T13:10:31;42.47;39.81;47.12;;
60031;Laerm;45901;47.600;9.890;2023-11-19T13:13:06;42.65;40.13;44.62;;
60031;Laerm;45901;47.600;9.890;2023-11-19T13:15:34;43.18;41.06;44.89;;
60031;Laerm;45901;47.600;9.890;2023-11-19T13:18:03;43.04;40.23;44.58;;
60031;Laerm;45901;47.600;9.890;2023-11-19T13:20:30;43.06;40.33;44.69;;
60031;Laerm;45901;47.600;9.890;2023-11-19T13:22:59;43.20;40.98;44.69;;
60031;Laerm;45901;47.600;9.890;2023-11-19T13:25:26;43.17;40.62;44.80;;
60031;Laerm;45901;47.600;9.890;2023-11-19T13:27:53;43.10;40.71;44.69;;
60031;Laerm;45901;47.600;9.890;2023-11-19T13:30:20;42.96;40.13;44.83;;
60031;Laerm;45901;47.600;9.890;2023-11-19T13:32:48;43.16;40.80;44.76;;
60031;Laerm;45901;47.600;9.890;2023-11-19T13:35:16;43.29;40.33;44.87;;
60031;Laerm;45901;47.600;9.890;2023-11-19T13:37:44;43.35;40.71;44.97;;
60031;Laerm;45901;47.600;9.890;2023-11-19T13:40:12;43.55;40.80;45.63;;
60031;Laerm;45901;47.600;9.890;2023-11-19T13:42:41;43.75;41.68;45.42;;
60031;Laerm;45901;47.600;9.890;2023-11-19T13:45:09;43.66;40.98;45.57;;
60031;Laerm;45901;47.600;9.890;2023-11-19T13:47:38;43.51;41.22;45.01;;
60031;Laerm;45901;47.600;9.890;2023-11-19T13:50:08;43.21;40.13;44.87;;
60031;Laerm;45901;47.600;9.890;2023-11-19T13:52:37;43.03;40.33;44.73;;
60031;Laerm;45901;47.600;9.890;2023-11-19T13:55:07;42.96;40.71;44.73;;